Time;durP1;ratioP1;P1;durP2;ratioP2;P2;SDS_P1;SDS_P2;PMS_P1;PMS_P2;Temp;Humidity;BMP_temperature;BMP_pressure;BME280_temperature;BME280_humidity;BME280_pressure;Samples;Min_cycle;Max_cycle;Signal;HPM_P1;HPM_P2
2021/05/11 00:01:32;;;;;;;31.27;16.90;;;13.90;99.90;;;;;;4951748;29;20440;-53
2021/05/11 00:03:57;;;;;;;26.13;15.80;;;13.80;99.90;;;;;;4952463;29;20398;-51
2021/05/11 00:06:23;;;;;;;26.95;15.40;;;13.80;99.90;;;;;;4952509;29;20389;-59
2021/05/11 00:08:49;;;;;;;27.20;16.25;;;13.90;99.90;;;;;;4951862;29;20394;-50
2021/05/11 00:11:15;;;;;;;27.13;15.93;;;13.90;99.90;;;;;;4952830;29;20790;-51
2021/05/11 00:13:40;;;;;;;28.13;15.90;;;13.90;99.90;;;;;;4951489;29;20381;-50
2021/05/11 00:16:06;;;;;;;26.73;16.30;;;14.00;99.90;;;;;;4952230;29;20378;-50
2021/05/11 00:18:33;;;;;;;26.38;15.27;;;14.00;99.90;;;;;;4951510;29;20398;-50
2021/05/11 00:20:59;;;;;;;28.33;16.45;;;13.00;99.90;;;;;;4952464;29;20831;-50
2021/05/11 00:23:25;;;;;;;29.48;17.15;;;13.80;99.90;;;;;;4951775;29;20419;-61
2021/05/11 00:25:50;;;;;;;29.10;17.30;;;13.80;99.90;;;;;;4952113;29;20394;-53
2021/05/11 00:28:16;;;;;;;27.63;15.80;;;13.80;99.90;;;;;;4951899;29;20496;-50
2021/05/11 00:30:42;;;;;;;30.23;16.90;;;13.70;99.90;;;;;;4951343;29;20893;-50
2021/05/11 00:33:07;;;;;;;29.33;16.83;;;13.60;99.90;;;;;;4952475;29;20750;-50
2021/05/11 00:35:33;;;;;;;29.83;16.70;;;13.60;99.90;;;;;;4951538;29;20397;-50
2021/05/11 00:37:58;;;;;;;31.33;17.50;;;13.50;99.90;;;;;;4951749;29;20906;-50
2021/05/11 00:40:24;;;;;;;34.85;16.70;;;13.50;99.90;;;;;;4951842;29;20492;-60
2021/05/11 00:42:50;;;;;;;32.67;17.50;;;13.50;99.90;;;;;;4951104;29;20500;-50
2021/05/11 00:45:17;;;;;;;31.45;16.20;;;13.40;99.90;;;;;;4951702;28;20401;-50
2021/05/11 00:47:43;;;;;;;28.43;14.67;;;13.50;99.90;;;;;;4951143;29;20397;-51
2021/05/11 00:50:09;;;;;;;30.05;14.68;;;13.50;99.90;;;;;;4951795;29;20453;-50
2021/05/11 00:52:35;;;;;;;30.73;16.30;;;13.50;99.90;;;;;;4951139;29;20392;-50
2021/05/11 00:55:03;;;;;;;28.45;14.93;;;13.50;99.90;;;;;;4951719;29;20390;-50
2021/05/11 00:57:31;;;;;;;26.67;14.23;;;13.60;99.90;;;;;;4950797;29;20389;-60
2021/05/11 00:59:58;;;;;;;30.83;14.85;;;13.70;99.90;;;;;;4951652;29;20392;-50
2021/05/11 01:02:24;;;;;;;28.33;14.65;;;13.60;99.90;;;;;;4951742;29;20952;-50
2021/05/11 01:04:50;;;;;;;29.20;15.57;;;13.60;99.90;;;;;;4950863;29;20401;-50
2021/05/11 01:07:16;;;;;;;29.93;15.20;;;13.50;99.90;;;;;;4951739;29;20397;-50
2021/05/11 01:09:41;;;;;;;30.60;14.68;;;13.50;99.90;;;;;;4950817;29;20402;-50
2021/05/11 01:12:07;;;;;;;27.83;14.20;;;13.50;99.90;;;;;;4951924;29;20401;-50
2021/05/11 01:14:33;;;;;;;29.75;15.70;;;13.40;99.90;;;;;;4951250;29;20396;-50
2021/05/11 01:17:00;;;;;;;27.60;14.40;;;13.40;99.90;;;;;;4951522;29;20426;-50
2021/05/11 01:24:38;;;;;;;24.55;13.40;;;13.70;99.90;;;;;;4951502;29;20427;-49
2021/05/11 01:27:11;;;;;;;23.73;13.48;;;13.80;99.90;;;;;;4951916;29;20401;-50
2021/05/11 01:29:44;;;;;;;25.92;12.43;;;13.70;99.90;;;;;;4950893;29;20853;-49
2021/05/11 02:23:02;;;;;;;33.30;14.77;;;12.90;99.90;;;;;;4954105;29;20475;-50
2021/05/11 02:25:28;;;;;;;38.35;16.65;;;13.00;99.90;;;;;;4954041;29;20485;-61
2021/05/11 02:27:54;;;;;;;35.35;15.60;;;12.90;99.90;;;;;;4953685;29;20410;-50
2021/05/11 02:30:20;;;;;;;34.60;15.90;;;12.90;99.90;;;;;;4954365;29;20409;-50
2021/05/11 02:32:45;;;;;;;34.57;16.90;;;12.90;99.90;;;;;;4953338;29;20560;-50
2021/05/11 02:35:14;;;;;;;37.75;16.98;;;12.80;99.90;;;;;;4954084;29;20866;-50
2021/05/11 02:37:40;;;;;;;39.95;16.92;;;12.80;99.90;;;;;;4953210;29;20429;-50
2021/05/11 02:40:09;;;;;;;35.92;15.52;;;12.90;99.90;;;;;;4954151;29;20429;-50
2021/05/11 02:42:36;;;;;;;35.25;16.58;;;12.90;99.90;;;;;;4953111;29;20433;-50
2021/05/11 02:45:03;;;;;;;32.22;14.43;;;12.90;99.90;;;;;;4953835;29;20465;-50
2021/05/11 02:47:29;;;;;;;32.78;15.43;;;12.90;99.90;;;;;;4953763;29;20421;-61
2021/05/11 02:49:54;;;;;;;41.47;17.77;;;12.90;99.90;;;;;;4953618;29;20434;-50
2021/05/11 02:52:20;;;;;;;38.97;16.33;;;13.00;99.90;;;;;;4953701;29;20390;-50
2021/05/11 02:54:46;;;;;;;33.53;16.07;;;13.00;99.90;;;;;;4953136;29;20546;-50
2021/05/11 02:57:11;;;;;;;36.53;16.65;;;13.00;99.90;;;;;;4953582;29;20785;-50
2021/05/11 02:59:38;;;;;;;37.20;16.70;;;13.00;99.90;;;;;;4953215;29;20398;-50
2021/05/11 03:02:05;;;;;;;37.22;16.77;;;12.90;99.90;;;;;;4953667;29;20562;-50
2021/05/11 03:04:30;;;;;;;37.72;17.77;;;12.90;99.90;;;;;;4952981;29;20421;-61
2021/05/11 03:06:59;;;;;;;33.73;16.20;;;13.00;99.90;;;;;;4952838;28;20774;-50
2021/05/11 03:09:26;;;;;;;33.13;16.90;;;13.00;99.90;;;;;;4953031;29;20386;-50
2021/05/11 03:11:53;;;;;;;38.87;16.80;;;13.00;99.90;;;;;;4952706;29;20394;-50
2021/05/11 03:14:19;;;;;;;36.90;16.30;;;13.00;99.90;;;;;;4953564;29;20386;-50
2021/05/11 03:16:45;;;;;;;37.65;17.27;;;13.00;99.90;;;;;;4935555;29;20393;-52
2021/05/11 03:19:11;;;;;;;37.22;16.35;;;13.00;99.90;;;;;;4953417;29;20433;-50
2021/05/11 03:21:37;;;;;;;36.55;16.58;;;13.00;99.90;;;;;;4952467;29;20422;-50
2021/05/11 03:24:03;;;;;;;35.20;16.10;;;13.10;99.90;;;;;;4953300;29;20398;-50
2021/05/11 03:26:29;;;;;;;38.75;16.38;;;13.00;99.90;;;;;;4952950;29;20445;-62
2021/05/11 03:28:55;;;;;;;33.55;15.88;;;13.00;99.90;;;;;;4952391;29;20964;-50
2021/05/11 03:31:20;;;;;;;29.20;14.87;;;13.10;99.90;;;;;;4958295;28;20400;-50
2021/05/11 03:33:46;;;;;;;32.80;15.27;;;13.20;99.90;;;;;;4954630;28;20398;-51
2021/05/11 03:36:12;;;;;;;32.90;15.35;;;13.30;99.90;;;;;;4952718;29;20386;-50
2021/05/11 03:38:37;;;;;;;34.73;15.33;;;13.20;99.90;;;;;;4952140;29;20393;-50
2021/05/11 03:41:03;;;;;;;31.90;15.45;;;13.30;99.90;;;;;;4952891;29;20448;-50
2021/05/11 03:43:47;;;;;;;31.93;14.50;;;13.30;99.90;;;;;;4952589;29;20921;-61
2021/05/11 03:46:12;;;;;;;30.87;14.67;;;13.30;99.90;;;;;;4952843;29;20402;-51
2021/05/11 03:48:38;;;;;;;35.15;16.05;;;13.40;99.90;;;;;;4934935;29;20890;-50
2021/05/11 03:51:06;;;;;;;36.53;16.30;;;13.30;99.90;;;;;;4934965;29;20394;-50
2021/05/11 03:53:33;;;;;;;35.10;15.13;;;13.30;99.90;;;;;;4952348;29;20389;-61
2021/05/11 03:55:59;;;;;;;31.55;15.38;;;13.40;99.90;;;;;;4952757;29;20385;-50
2021/05/11 03:58:26;;;;;;;37.85;16.92;;;13.30;99.90;;;;;;4952669;29;20401;-50
2021/05/11 04:00:52;;;;;;;33.33;15.75;;;13.30;99.90;;;;;;4951718;29;20461;-50
2021/05/11 04:03:18;;;;;;;35.38;16.40;;;13.30;99.90;;;;;;4952615;29;20422;-51
2021/05/11 04:05:45;;;;;;;34.05;14.85;;;13.40;99.90;;;;;;4951569;29;20405;-50
2021/05/11 04:08:17;;;;;;;35.72;16.65;;;13.50;99.90;;;;;;4952553;29;20393;-50
2021/05/11 04:10:46;;;;;;;33.27;15.27;;;13.50;99.90;;;;;;4951823;29;20888;-51
2021/05/11 04:18:22;;;;;;;34.10;16.17;;;13.50;99.90;;;;;;4952129;28;20478;-51
2021/05/11 04:20:49;;;;;;;35.37;15.27;;;13.70;99.90;;;;;;4951291;29;20816;-50
2021/05/11 04:23:14;;;;;;;30.47;15.40;;;13.80;99.90;;;;;;4959873;28;20429;-51
2021/05/11 04:25:40;;;;;;;31.80;14.85;;;13.90;99.90;;;;;;4961407;28;20398;-50
2021/05/11 04:28:06;;;;;;;30.57;15.20;;;13.90;99.90;;;;;;4961046;28;20414;-50
2021/05/11 04:30:31;;;;;;;28.87;14.43;;;13.90;99.90;;;;;;4962255;28;20751;-61
2021/05/11 04:32:57;;;;;;;29.15;14.32;;;13.90;99.90;;;;;;4959274;28;20446;-50
2021/05/11 04:35:23;;;;;;;29.10;14.23;;;13.90;99.90;;;;;;4960967;28;20397;-50
2021/05/11 04:37:48;;;;;;;27.10;14.70;;;13.80;99.90;;;;;;4947662;28;20475;-50
2021/05/11 04:40:15;;;;;;;25.50;13.57;;;13.90;99.90;;;;;;4970887;28;20405;-50
2021/05/11 04:42:43;;;;;;;25.42;13.70;;;14.00;99.90;;;;;;4969266;28;20412;-50
2021/05/11 04:45:09;;;;;;;28.25;15.10;;;14.00;99.90;;;;;;4955672;28;20400;-50
2021/05/11 04:47:48;;;;;;;25.80;13.93;;;14.00;99.90;;;;;;4967023;28;20392;-50
2021/05/11 04:50:22;;;;;;;27.58;14.50;;;13.90;99.90;;;;;;4956830;28;20412;-50
2021/05/11 04:52:49;;;;;;;25.90;13.50;;;13.90;99.90;;;;;;4970462;28;20422;-50
2021/05/11 04:55:16;;;;;;;28.02;14.35;;;13.80;99.90;;;;;;4957285;28;20463;-50
2021/05/11 04:57:42;;;;;;;25.37;13.80;;;13.80;99.90;;;;;;4966586;28;20449;-50
2021/05/11 05:00:10;;;;;;;27.65;14.70;;;13.80;99.90;;;;;;4956144;28;20389;-50
2021/05/11 05:02:39;;;;;;;29.35;15.35;;;13.80;99.90;;;;;;4961730;28;20409;-50
2021/05/11 05:05:05;;;;;;;26.58;14.80;;;13.80;99.90;;;;;;4951604;29;20481;-50
2021/05/11 05:07:30;;;;;;;28.02;14.40;;;13.80;99.90;;;;;;4966664;28;20384;-61
2021/05/11 05:09:56;;;;;;;28.75;13.65;;;13.80;99.90;;;;;;4954198;28;20450;-50
2021/05/11 05:12:22;;;;;;;30.33;14.70;;;13.70;99.90;;;;;;4964458;28;20695;-50
2021/05/11 05:14:48;;;;;;;27.13;14.23;;;13.70;99.90;;;;;;4960610;28;20395;-50
2021/05/11 05:17:13;;;;;;;26.50;14.10;;;13.80;99.90;;;;;;4964327;28;20392;-50
2021/05/11 05:19:39;;;;;;;25.30;14.20;;;13.90;99.90;;;;;;4969935;28;20388;-50
2021/05/11 05:22:07;;;;;;;27.27;14.27;;;14.00;99.90;;;;;;4958831;28;20417;-50
2021/05/11 05:24:40;;;;;;;24.92;13.05;;;14.10;99.90;;;;;;4963813;28;20407;-61
2021/05/11 05:29:37;;;;;;;24.55;12.32;;;14.20;99.90;;;;;;4958053;28;20607;-51
2021/05/11 05:32:03;;;;;;;23.73;12.20;;;14.20;99.90;;;;;;4961445;28;20402;-51
2021/05/11 05:34:29;;;;;;;25.45;13.88;;;14.00;99.90;;;;;;4971286;28;20419;-50
2021/05/11 05:36:54;;;;;;;24.93;13.07;;;14.00;99.90;;;;;;4973544;28;20404;-51
2021/05/11 05:39:23;;;;;;;25.07;12.90;;;14.00;99.90;;;;;;4974900;28;20539;-49
2021/05/11 05:41:49;;;;;;;23.15;12.60;;;14.00;99.90;;;;;;4956103;28;20426;-50
2021/05/11 05:44:14;;;;;;;25.60;13.80;;;14.00;99.90;;;;;;4974264;28;20392;-50
2021/05/11 05:46:40;;;;;;;24.48;12.70;;;14.10;99.90;;;;;;4973621;28;20384;-50
2021/05/11 05:49:08;;;;;;;23.70;13.47;;;14.20;99.90;;;;;;4972953;28;20861;-50
2021/05/11 05:51:33;;;;;;;25.80;13.10;;;14.20;99.90;;;;;;4971317;28;20846;-61
2021/05/11 05:53:59;;;;;;;24.50;12.98;;;14.30;99.90;;;;;;4961007;28;20505;-50
2021/05/11 05:56:25;;;;;;;21.60;11.30;;;14.30;99.90;;;;;;4969211;28;20412;-50
2021/05/11 05:58:50;;;;;;;22.40;11.57;;;14.20;99.90;;;;;;4955396;28;20418;-50
2021/05/11 06:01:16;;;;;;;20.40;11.77;;;14.30;99.90;;;;;;4957228;28;20473;-50
2021/05/11 06:06:12;;;;;;;23.00;11.50;;;14.50;99.90;;;;;;4973656;28;20478;-50
2021/05/11 06:08:39;;;;;;;20.73;11.68;;;14.30;99.90;;;;;;4972881;28;20455;-50
2021/05/11 06:11:30;;;;;;;21.40;11.77;;;14.20;99.90;;;;;;4960704;28;20390;-50
2021/05/11 06:19:15;;;;;;;19.83;11.65;;;14.40;99.90;;;;;;4954094;29;20393;-50
2021/05/11 06:21:41;;;;;;;20.05;10.68;;;14.60;99.90;;;;;;4953300;29;20390;-50
2021/05/11 06:24:08;;;;;;;20.60;11.35;;;14.60;99.90;;;;;;4954043;29;20453;-51
2021/05/11 06:26:34;;;;;;;21.87;11.33;;;14.60;99.90;;;;;;4953422;29;20765;-61
2021/05/11 06:29:01;;;;;;;20.85;11.50;;;14.60;99.90;;;;;;4972388;28;20502;-51
2021/05/11 06:31:27;;;;;;;22.15;11.27;;;14.70;99.90;;;;;;4973717;28;20401;-50
2021/05/11 06:33:54;;;;;;;21.83;12.85;;;14.70;99.90;;;;;;4972210;28;20393;-50
2021/05/11 06:36:20;;;;;;;21.23;12.15;;;14.60;99.90;;;;;;4973328;28;20404;-50
2021/05/11 06:38:45;;;;;;;21.17;11.45;;;14.80;99.90;;;;;;4972350;28;20748;-52
2021/05/11 06:41:12;;;;;;;18.10;11.18;;;14.90;99.90;;;;;;4972849;28;20384;-50
2021/05/11 06:43:40;;;;;;;19.13;10.50;;;15.10;99.90;;;;;;4971767;28;20491;-50
2021/05/11 06:46:26;;;;;;;16.27;9.80;;;15.20;99.90;;;;;;4973324;28;20388;-50
2021/05/11 06:49:14;;;;;;;18.63;10.53;;;15.40;99.90;;;;;;4972208;28;20400;-50
2021/05/11 06:54:12;;;;;;;19.27;10.05;;;15.50;99.90;;;;;;4972720;28;20395;-50
2021/05/11 06:56:45;;;;;;;17.67;9.02;;;15.40;99.90;;;;;;4972033;28;20415;-51
2021/05/11 06:59:12;;;;;;;17.10;9.73;;;15.30;99.90;;;;;;4972450;28;20441;-51
2021/05/11 07:01:38;;;;;;;19.00;10.60;;;15.40;99.90;;;;;;4964443;28;20865;-53
2021/05/11 07:04:04;;;;;;;19.70;10.47;;;15.40;99.90;;;;;;4953276;29;20394;-51
2021/05/11 07:06:29;;;;;;;13.88;8.50;;;15.50;99.90;;;;;;4953715;29;20386;-50
2021/05/11 07:09:06;;;;;;;19.23;10.67;;;15.40;99.90;;;;;;4952511;29;21012;-50
2021/05/11 07:14:03;;;;;;;13.07;7.63;;;15.70;99.90;;;;;;4953372;29;20869;-50
2021/05/11 07:16:29;;;;;;;14.05;8.00;;;15.80;99.90;;;;;;4952759;29;20397;-48
2021/05/11 07:18:55;;;;;;;13.38;7.38;;;15.80;99.90;;;;;;4952360;29;20389;-48
2021/05/11 07:21:20;;;;;;;13.75;8.10;;;15.70;99.90;;;;;;4952831;29;20390;-48
2021/05/11 07:23:46;;;;;;;11.40;6.60;;;15.80;99.90;;;;;;4952039;29;20984;-57
2021/05/11 07:26:26;;;;;;;11.80;7.30;;;15.90;99.90;;;;;;4953070;29;20900;-48
2021/05/11 07:29:08;;;;;;;11.02;6.50;;;16.00;99.90;;;;;;4951580;29;20501;-48
2021/05/11 07:31:36;;;;;;;9.77;5.90;;;16.20;99.90;;;;;;4952793;29;20404;-59
2021/05/11 07:34:03;;;;;;;10.30;5.53;;;14.20;99.90;;;;;;4952580;29;20936;-49
2021/05/11 07:36:29;;;;;;;9.70;5.72;;;16.30;99.90;;;;;;4952844;29;20402;-48
2021/05/11 07:38:55;;;;;;;10.15;5.40;;;16.20;99.90;;;;;;4951882;29;20389;-50
2021/05/11 07:41:21;;;;;;;10.57;6.15;;;16.40;99.90;;;;;;4952478;29;20390;-48
2021/05/11 07:43:57;;;;;;;10.93;6.43;;;16.50;99.90;;;;;;4951819;29;20422;-50
2021/05/11 08:05:24;;;;;;;8.33;4.83;;;16.50;99.90;;;;;;4970888;28;20379;-48
2021/05/11 08:10:49;;;;;;;7.40;4.43;;;16.50;99.90;;;;;;4970851;28;20375;-59
2021/05/11 08:16:13;;;;;;;9.52;5.10;;;16.20;99.90;;;;;;4970301;28;20455;-48
2021/05/11 08:29:16;;;;;;;9.90;5.82;;;16.30;99.90;;;;;;4970695;28;20418;-48
2021/05/11 08:31:43;;;;;;;10.90;6.60;;;16.40;99.90;;;;;;4969900;28;20868;-48
2021/05/11 08:34:09;;;;;;;10.43;6.28;;;16.40;99.90;;;;;;4970600;28;20875;-48
2021/05/11 08:36:35;;;;;;;9.57;5.97;;;16.50;99.90;;;;;;4971181;28;20415;-59
2021/05/11 08:39:01;;;;;;;11.98;7.13;;;16.60;99.90;;;;;;4970411;28;20910;-49
2021/05/11 08:41:26;;;;;;;12.67;6.77;;;16.40;99.90;;;;;;4970851;28;20435;-49
2021/05/11 08:43:52;;;;;;;11.68;6.55;;;16.40;99.90;;;;;;4969712;28;20420;-48
2021/05/11 08:46:18;;;;;;;11.05;6.70;;;16.50;99.90;;;;;;4970767;28;20396;-48
2021/05/11 08:48:44;;;;;;;11.02;6.47;;;16.70;99.90;;;;;;4970426;28;20423;-48
2021/05/11 08:51:27;;;;;;;10.40;6.80;;;16.70;99.90;;;;;;4970730;28;20420;-49
2021/05/11 10:49:35;;;;;;;14.25;9.77;;;18.00;99.90;;;;;;4973054;28;20388;-49
2021/05/11 10:52:18;;;;;;;16.42;11.38;;;18.20;99.90;;;;;;4972213;28;21078;-49
2021/05/11 10:55:01;;;;;;;18.30;12.40;;;18.00;99.90;;;;;;4972348;28;20420;-49
2021/05/11 10:57:34;;;;;;;17.67;11.43;;;17.80;99.90;;;;;;4972768;28;20393;-49
2021/05/11 11:05:46;;;;;;;16.55;11.85;;;17.90;99.90;;;;;;4953366;29;20398;-59
2021/05/11 11:08:34;;;;;;;16.33;12.33;;;17.80;99.90;;;;;;4952824;29;20776;-49
2021/05/11 11:11:09;;;;;;;17.67;11.93;;;18.10;99.90;;;;;;4952570;29;20409;-49
2021/05/11 11:13:36;;;;;;;19.05;12.60;;;18.20;99.90;;;;;;4935852;29;20770;-48
2021/05/11 11:16:02;;;;;;;16.17;11.35;;;18.20;99.90;;;;;;4952267;29;20522;-54
2021/05/11 11:18:28;;;;;;;15.25;10.80;;;18.20;99.90;;;;;;4952648;29;20787;-49
2021/05/11 11:23:50;;;;;;;14.43;10.50;;;18.10;99.90;;;;;;4952557;29;20417;-60
2021/05/11 11:26:37;;;;;;;13.48;9.70;;;18.20;99.90;;;;;;4953010;29;20857;-49
2021/05/11 11:29:05;;;;;;;11.35;8.43;;;18.30;99.90;;;;;;4950662;28;20426;-49
2021/05/11 11:31:37;;;;;;;10.23;8.25;;;18.40;99.90;;;;;;4952714;29;20406;-50
2021/05/11 11:34:39;;;;;;;10.32;7.95;;;18.40;99.90;;;;;;4952011;29;20496;-50
2021/05/11 11:37:13;;;;;;;10.63;8.30;;;18.40;99.90;;;;;;4951848;29;20386;-50
2021/05/11 11:39:46;;;;;;;10.07;8.32;;;18.20;99.90;;;;;;4952579;29;20390;-50
2021/05/11 11:42:25;;;;;;;10.10;7.80;;;18.10;99.90;;;;;;4952555;29;20456;-49
2021/05/11 11:45:00;;;;;;;9.80;8.10;;;18.10;99.90;;;;;;4951690;29;20897;-50
2021/05/11 11:47:27;;;;;;;9.85;8.07;;;18.20;99.90;;;;;;4952355;29;20965;-50
2021/05/11 11:49:57;;;;;;;10.18;7.40;;;18.70;99.90;;;;;;4951422;29;20432;-50
2021/05/11 11:52:25;;;;;;;8.98;7.10;;;19.00;99.90;;;;;;4952471;29;20485;-50
2021/05/11 12:00:14;;;;;;;10.90;7.05;;;18.70;99.90;;;;;;4951811;29;20390;-50
2021/05/11 12:02:59;;;;;;;9.10;7.10;;;18.60;99.90;;;;;;4967444;28;20440;-61
2021/05/11 12:05:31;;;;;;;9.07;7.40;;;19.00;99.90;;;;;;4971538;28;20492;-51
2021/05/11 12:10:28;;;;;;;12.38;9.55;;;19.30;99.90;;;;;;4971193;28;20377;-50
2021/05/11 12:12:55;;;;;;;12.60;10.05;;;19.40;99.90;;;;;;4970283;28;20410;-50
2021/05/11 12:15:21;;;;;;;13.32;10.90;;;19.00;99.90;;;;;;4970243;28;20488;-50
2021/05/11 12:18:19;;;;;;;13.40;10.15;;;19.20;99.90;;;;;;4952935;28;20756;-50
2021/05/11 12:20:59;;;;;;;12.07;9.63;;;19.00;99.90;;;;;;4970217;28;20482;-50
2021/05/11 12:23:26;;;;;;;14.18;10.60;;;19.00;99.90;;;;;;4971522;28;20805;-50
2021/05/11 12:25:57;;;;;;;13.45;10.50;;;17.90;99.90;;;;;;4970489;28;20396;-50
2021/05/11 12:28:42;;;;;;;14.10;11.10;;;18.70;99.90;;;;;;4971225;28;20421;-50
2021/05/11 12:31:10;;;;;;;15.90;11.90;;;18.60;99.90;;;;;;4970914;28;20388;-50
2021/05/11 12:33:44;;;;;;;16.58;11.93;;;18.40;99.90;;;;;;4970937;28;20395;-50
2021/05/11 12:36:21;;;;;;;15.10;12.10;;;18.40;99.90;;;;;;4971254;28;20443;-50
2021/05/11 12:38:49;;;;;;;14.13;9.85;;;18.50;99.90;;;;;;4969889;28;20419;-53
2021/05/11 12:41:32;;;;;;;13.90;10.00;;;18.40;99.90;;;;;;4970829;28;20405;-50
2021/05/11 12:43:59;;;;;;;13.70;10.35;;;17.80;99.90;;;;;;4970108;28;20477;-50
2021/05/11 12:46:32;;;;;;;16.73;11.65;;;17.60;99.90;;;;;;4971169;28;20447;-49
2021/05/11 12:49:21;;;;;;;19.20;11.93;;;17.40;99.90;;;;;;4970280;28;20420;-50
2021/05/11 12:51:53;;;;;;;15.43;11.75;;;17.50;99.90;;;;;;4970248;28;20401;-50
2021/05/11 13:05:14;;;;;;;11.23;7.70;;;17.00;99.90;;;;;;4950343;29;20396;-53
2021/05/11 13:16:34;;;;;;;10.90;8.02;;;16.30;99.90;;;;;;4908293;29;20437;-49
2021/05/11 13:32:22;;;;;;;13.73;9.52;;;15.60;99.90;;;;;;4951057;29;20944;-50
2021/05/11 13:34:48;;;;;;;12.63;8.73;;;15.60;99.90;;;;;;4950356;29;20389;-49
2021/05/11 13:37:14;;;;;;;12.07;7.88;;;15.50;99.90;;;;;;4950990;29;20389;-50
2021/05/11 13:39:39;;;;;;;12.80;7.90;;;15.50;99.90;;;;;;4950888;29;20374;-50
2021/05/11 13:42:05;;;;;;;12.50;7.63;;;15.30;99.90;;;;;;4933304;29;20448;-50
2021/05/11 13:44:30;;;;;;;11.57;8.60;;;15.20;99.90;;;;;;4933543;29;20421;-52
2021/05/11 13:46:56;;;;;;;10.37;7.50;;;15.20;99.90;;;;;;4950071;29;20386;-50
2021/05/11 13:49:22;;;;;;;9.50;7.07;;;15.00;99.90;;;;;;4950697;29;20398;-50
2021/05/11 13:51:48;;;;;;;8.40;6.03;;;14.90;99.90;;;;;;4951146;28;20426;-52
2021/05/11 13:54:16;;;;;;;8.05;6.10;;;15.00;99.90;;;;;;4954836;29;20449;-53
2021/05/11 14:02:09;;;;;;;6.82;3.88;;;15.30;99.90;;;;;;4963240;28;20414;-50
2021/05/11 14:04:35;;;;;;;7.45;4.25;;;15.20;99.90;;;;;;4973716;28;20517;-50
2021/05/11 14:07:01;;;;;;;6.18;3.80;;;15.40;99.90;;;;;;4973061;28;20415;-53
2021/05/11 14:09:27;;;;;;;6.13;4.30;;;15.40;99.90;;;;;;4973703;28;20395;-50
2021/05/11 14:11:52;;;;;;;7.68;4.20;;;15.50;99.90;;;;;;4972884;28;20476;-50
2021/05/11 14:14:18;;;;;;;7.33;4.10;;;15.60;99.90;;;;;;4973907;28;20384;-50
2021/05/11 14:16:45;;;;;;;6.93;4.20;;;15.80;99.90;;;;;;4973335;28;20883;-60
2021/05/11 14:19:12;;;;;;;6.60;4.18;;;15.90;99.90;;;;;;4972620;28;20392;-50
2021/05/11 14:21:38;;;;;;;8.07;4.10;;;16.00;99.90;;;;;;4973462;28;20392;-49
2021/05/11 14:24:04;;;;;;;8.80;4.80;;;16.00;99.90;;;;;;4971516;28;20577;-49
2021/05/11 14:26:31;;;;;;;7.90;4.00;;;16.00;99.90;;;;;;4973352;28;20392;-49
2021/05/11 14:28:57;;;;;;;7.07;3.58;;;16.10;99.90;;;;;;4972440;28;20494;-50
2021/05/11 14:31:24;;;;;;;6.45;4.10;;;16.00;99.90;;;;;;4973468;28;20394;-49
2021/05/11 14:33:50;;;;;;;6.05;3.42;;;16.00;99.90;;;;;;4972344;28;20911;-50
2021/05/11 14:36:15;;;;;;;5.45;3.47;;;15.90;99.90;;;;;;4973144;28;20393;-50
2021/05/11 14:38:41;;;;;;;7.00;3.60;;;15.90;99.90;;;;;;4973005;28;20721;-50
2021/05/11 14:41:09;;;;;;;5.80;3.10;;;15.90;99.90;;;;;;4972632;28;20408;-49
2021/05/11 14:43:38;;;;;;;5.50;2.70;;;15.80;99.90;;;;;;4973211;28;20412;-57
2021/05/11 14:46:06;;;;;;;4.38;2.30;;;15.60;99.90;;;;;;4954929;28;21056;-49
2021/05/11 14:48:33;;;;;;;4.00;1.60;;;15.40;99.90;;;;;;4972988;28;20812;-52
2021/05/11 14:50:59;;;;;;;4.00;1.20;;;15.40;99.90;;;;;;4971471;28;20479;-49
2021/05/11 14:53:25;;;;;;;4.47;1.50;;;15.30;99.90;;;;;;4973413;28;20392;-49
2021/05/11 14:55:52;;;;;;;3.70;1.50;;;15.30;99.90;;;;;;4972186;28;20398;-50
2021/05/11 14:58:17;;;;;;;4.50;1.50;;;15.10;99.90;;;;;;4973077;28;20482;-50
2021/05/11 15:00:43;;;;;;;4.63;1.70;;;15.10;99.90;;;;;;4972369;28;20828;-50
2021/05/11 15:03:13;;;;;;;3.70;1.60;;;15.10;99.90;;;;;;4952170;28;21218;-50
2021/05/11 15:05:39;;;;;;;4.47;1.90;;;14.90;99.90;;;;;;4953874;29;20403;-50
2021/05/11 15:08:05;;;;;;;3.90;1.80;;;15.00;99.90;;;;;;4952785;29;20390;-50
2021/05/11 15:10:31;;;;;;;4.10;1.90;;;15.00;99.90;;;;;;4939410;28;20404;-50
2021/05/11 15:12:58;;;;;;;4.10;2.20;;;15.10;99.90;;;;;;4958178;28;20937;-50
2021/05/11 15:15:24;;;;;;;4.43;2.40;;;14.90;99.90;;;;;;4961298;28;20842;-54
2021/05/11 15:20:18;;;;;;;5.15;2.47;;;14.60;99.90;;;;;;4972221;28;20377;-51
2021/05/11 15:22:45;;;;;;;5.63;2.00;;;14.60;99.90;;;;;;4948572;28;20441;-62
2021/05/11 15:25:11;;;;;;;4.00;2.40;;;14.40;99.90;;;;;;4961512;28;20803;-51
2021/05/11 15:27:37;;;;;;;7.13;2.70;;;14.40;99.90;;;;;;4962711;28;20388;-53
2021/05/11 15:30:06;;;;;;;5.37;2.90;;;14.50;99.90;;;;;;4960681;28;20473;-51
2021/05/11 15:32:39;;;;;;;5.20;3.10;;;14.50;99.90;;;;;;4961948;28;20428;-51
2021/05/11 15:35:07;;;;;;;4.22;2.50;;;14.40;99.90;;;;;;4943120;28;20992;-51
2021/05/11 15:37:32;;;;;;;4.90;2.40;;;14.30;99.90;;;;;;4956580;28;20915;-53
2021/05/11 15:39:58;;;;;;;4.10;2.50;;;14.20;99.90;;;;;;4951934;29;20397;-51
2021/05/11 15:42:24;;;;;;;4.60;2.70;;;14.10;99.90;;;;;;4957516;28;20973;-51
2021/05/11 15:44:49;;;;;;;5.07;2.60;;;14.10;99.90;;;;;;4957202;28;20381;-53
2021/05/11 15:47:16;;;;;;;4.53;2.90;;;14.10;99.90;;;;;;4966743;28;20439;-51
2021/05/11 15:49:45;;;;;;;4.60;2.90;;;14.10;99.90;;;;;;4972382;28;20393;-51
2021/05/11 15:52:11;;;;;;;4.30;3.10;;;14.00;99.90;;;;;;4971224;28;20758;-58
2021/05/11 15:54:36;;;;;;;5.20;2.70;;;14.00;99.90;;;;;;4971573;28;20464;-51
2021/05/11 15:57:02;;;;;;;4.20;2.70;;;14.10;99.90;;;;;;4970894;28;20380;-51
2021/05/11 15:59:28;;;;;;;4.90;2.67;;;14.10;99.90;;;;;;4969162;28;20414;-51
2021/05/11 16:01:54;;;;;;;4.18;2.40;;;14.10;99.90;;;;;;4967216;28;20815;-52
2021/05/11 16:04:19;;;;;;;4.00;2.10;;;14.20;99.90;;;;;;4971959;28;20384;-51
2021/05/11 16:06:45;;;;;;;4.50;2.05;;;14.20;99.90;;;;;;4971655;28;20880;-59
2021/05/11 16:09:10;;;;;;;4.60;2.00;;;14.20;99.90;;;;;;4970912;28;20396;-51
2021/05/11 16:11:36;;;;;;;3.50;1.80;;;14.20;99.90;;;;;;4971620;28;20729;-57
2021/05/11 16:14:02;;;;;;;5.95;1.80;;;14.30;99.90;;;;;;4970773;28;20436;-51
2021/05/11 16:16:28;;;;;;;3.53;1.80;;;14.20;99.90;;;;;;4970910;28;20399;-51
2021/05/11 16:18:53;;;;;;;3.70;1.85;;;14.30;99.90;;;;;;4970694;28;20389;-51
2021/05/11 16:21:19;;;;;;;4.07;1.90;;;14.40;99.90;;;;;;4971164;28;20392;-51
2021/05/11 16:23:47;;;;;;;3.80;1.90;;;14.50;99.90;;;;;;4971418;28;20980;-51
2021/05/11 16:26:13;;;;;;;3.88;1.60;;;14.50;99.90;;;;;;4970866;28;20396;-51
2021/05/11 16:28:38;;;;;;;4.03;1.60;;;14.40;99.90;;;;;;4971234;28;20412;-51
2021/05/11 16:31:04;;;;;;;3.53;1.60;;;14.40;99.90;;;;;;4970084;28;20808;-51
2021/05/11 16:33:30;;;;;;;4.30;1.70;;;14.40;99.90;;;;;;4970976;28;20435;-51
2021/05/11 16:35:56;;;;;;;4.22;1.60;;;14.30;99.90;;;;;;4970209;28;20749;-51
2021/05/11 16:38:21;;;;;;;5.50;2.00;;;12.10;99.90;;;;;;4971169;28;20388;-50
2021/05/11 16:40:47;;;;;;;3.80;1.90;;;14.10;99.90;;;;;;4970747;28;20740;-63
2021/05/11 16:43:15;;;;;;;4.83;2.47;;;14.20;99.90;;;;;;4970823;28;20412;-50
2021/05/11 16:45:41;;;;;;;4.60;2.10;;;14.10;99.90;;;;;;4971143;28;20403;-50
2021/05/11 16:48:07;;;;;;;4.00;2.40;;;13.90;99.90;;;;;;4964300;28;20455;-51
2021/05/11 16:50:34;;;;;;;5.30;2.55;;;13.90;99.90;;;;;;4960963;28;20788;-54
2021/05/11 16:53:04;;;;;;;5.80;2.50;;;14.00;99.90;;;;;;4957760;28;20399;-51
2021/05/11 16:55:31;;;;;;;5.70;2.50;;;14.00;99.90;;;;;;4962252;28;20476;-52
2021/05/11 16:57:58;;;;;;;5.53;2.30;;;14.00;99.90;;;;;;4961349;28;20902;-51
2021/05/11 17:00:25;;;;;;;4.10;2.08;;;14.00;99.90;;;;;;4970543;28;20393;-54
2021/05/11 17:02:51;;;;;;;6.00;2.20;;;14.10;99.90;;;;;;4952776;28;20435;-52
2021/05/11 17:05:21;;;;;;;5.43;2.30;;;14.00;99.90;;;;;;4951558;29;20433;-56
2021/05/11 17:07:48;;;;;;;5.57;2.05;;;14.00;99.90;;;;;;4951390;29;20398;-64
2021/05/11 17:10:14;;;;;;;6.35;2.30;;;14.00;99.90;;;;;;4951297;29;20458;-55
2021/05/11 17:12:40;;;;;;;5.57;2.37;;;14.00;99.90;;;;;;4934335;29;20484;-51
2021/05/11 17:15:07;;;;;;;5.30;2.25;;;14.00;99.90;;;;;;4956377;28;21098;-56
2021/05/11 17:17:34;;;;;;;4.60;2.08;;;13.90;99.90;;;;;;4959724;28;20436;-51
2021/05/11 17:19:59;;;;;;;4.00;1.90;;;13.60;99.90;;;;;;4959817;28;20399;-55
2021/05/11 17:22:26;;;;;;;5.47;1.70;;;13.40;99.90;;;;;;4961258;28;20913;-51
2021/05/11 17:24:52;;;;;;;4.50;1.70;;;13.60;99.90;;;;;;4963130;28;20394;-52